Terminal Aerodrome Forecast
Issued by NWS

Home | Current Version | Previous Version | Text Only | Print | Product List | Glossary On
Versions: 1 2 3 4 5 6 7 8 9 10 11 12 13 14 15 16 17 18 19 20 21 22 23 24 25 26
000
FTUS43 KMKX 210859 AAA
TAFENW
TAF AMD
KENW 210859Z 2109/2206 VRB04KT P6SM FEW100 OVC200
      TEMPO 2109/2112 3SM BR
     FM211500 09005KT P6SM SCT100 BKN200
     FM220000 13007KT P6SM VCTS SCT035CB BKN090
     FM220300 14005KT P6SM SHRA VCTS SCT035CB OVC090=

USA.gov is the U.S. government's official web portal to all federal, state and local government web resources and services.